Stotts City, Missouri
Current Conditions -  °F | °C
As of 3:55 PM on Thursday 27 Nov 2014 (Local Time) from KHFJ Reporting Station
Clear Clear  
Wind Chill: 36°   Ceiling: Unl
Heat Index: 39°   Visibility: 10mi
Dew Point: 21°   Wind: 5mph
Humidity: 49%   Direction: 130°SE
Pressure: 30.4"   Gusts: NA
Location:  37.1°N, 93.95°W
Report Text: KHFJ 272155Z AUTO 13004KT 10SM CLR 04/M06 A3040 RMK AO2
Loading
Personal Weather Stations






























Interactive Weather Map New forecast layout! Learn more

10-Day Weather Forecast

Advertisements
Track Severe Weather on mobile